sensor_id;sensor_type;location;lat;lon;timestamp;temperature;humidity
5134;DHT22;2585;48.696;10.066;2023-01-29T00:02:05;-1.20;76.40
5134;DHT22;2585;48.696;10.066;2023-01-29T00:04:32;-1.30;79.90
5134;DHT22;2585;48.696;10.066;2023-01-29T00:06:58;-1.30;82.60
5134;DHT22;2585;48.696;10.066;2023-01-29T00:09:26;-1.30;84.50
5134;DHT22;2585;48.696;10.066;2023-01-29T00:11:53;-1.30;85.40
5134;DHT22;2585;48.696;10.066;2023-01-29T00:14:20;-1.30;85.10
5134;DHT22;2585;48.696;10.066;2023-01-29T00:16:47;-1.30;85.90
5134;DHT22;2585;48.696;10.066;2023-01-29T00:19:14;-1.30;86.00
5134;DHT22;2585;48.696;10.066;2023-01-29T00:21:40;-1.30;86.70
5134;DHT22;2585;48.696;10.066;2023-01-29T00:24:07;-1.30;85.90
5134;DHT22;2585;48.696;10.066;2023-01-29T00:26:34;-1.30;84.90
5134;DHT22;2585;48.696;10.066;2023-01-29T00:29:01;-1.40;82.00
5134;DHT22;2585;48.696;10.066;2023-01-29T00:31:28;-1.40;82.30
5134;DHT22;2585;48.696;10.066;2023-01-29T00:33:55;-1.40;82.90
5134;DHT22;2585;48.696;10.066;2023-01-29T00:36:23;-1.50;82.20
5134;DHT22;2585;48.696;10.066;2023-01-29T00:38:58;-1.50;82.80
5134;DHT22;2585;48.696;10.066;2023-01-29T00:41:28;-1.50;82.80
5134;DHT22;2585;48.696;10.066;2023-01-29T00:44:14;-1.50;83.40
5134;DHT22;2585;48.696;10.066;2023-01-29T00:47:00;-1.40;82.80
5134;DHT22;2585;48.696;10.066;2023-01-29T00:49:27;-1.40;83.20
5134;DHT22;2585;48.696;10.066;2023-01-29T00:51:55;-1.40;82.90
5134;DHT22;2585;48.696;10.066;2023-01-29T00:54:40;-1.50;81.20
5134;DHT22;2585;48.696;10.066;2023-01-29T00:57:07;-1.40;81.10
5134;DHT22;2585;48.696;10.066;2023-01-29T00:59:34;-1.40;82.20
5134;DHT22;2585;48.696;10.066;2023-01-29T01:02:01;-1.40;83.80
5134;DHT22;2585;48.696;10.066;2023-01-29T01:04:46;-1.40;85.10
5134;DHT22;2585;48.696;10.066;2023-01-29T01:07:13;-1.40;86.60
5134;DHT22;2585;48.696;10.066;2023-01-29T01:09:40;-1.40;85.90
5134;DHT22;2585;48.696;10.066;2023-01-29T01:12:25;-1.40;86.60
5134;DHT22;2585;48.696;10.066;2023-01-29T01:14:53;-1.40;87.40
5134;DHT22;2585;48.696;10.066;2023-01-29T01:17:19;-1.50;87.10
5134;DHT22;2585;48.696;10.066;2023-01-29T01:19:46;-1.50;87.50
5134;DHT22;2585;48.696;10.066;2023-01-29T01:22:13;-1.40;87.70
5134;DHT22;2585;48.696;10.066;2023-01-29T01:24:40;-1.40;88.40
5134;DHT22;2585;48.696;10.066;2023-01-29T01:27:07;-1.40;88.90
5134;DHT22;2585;48.696;10.066;2023-01-29T01:29:33;-1.40;89.20
5134;DHT22;2585;48.696;10.066;2023-01-29T01:32:01;-1.40;89.10
5134;DHT22;2585;48.696;10.066;2023-01-29T01:34:28;-1.40;89.50
5134;DHT22;2585;48.696;10.066;2023-01-29T01:36:55;-1.40;89.30
5134;DHT22;2585;48.696;10.066;2023-01-29T01:39:22;-1.50;86.70
5134;DHT22;2585;48.696;10.066;2023-01-29T01:41:51;-1.50;84.50
5134;DHT22;2585;48.696;10.066;2023-01-29T01:44:59;-1.50;84.60
5134;DHT22;2585;48.696;10.066;2023-01-29T01:47:43;-1.50;83.30
5134;DHT22;2585;48.696;10.066;2023-01-29T01:50:20;-1.60;80.90
5134;DHT22;2585;48.696;10.066;2023-01-29T01:52:51;-1.60;80.10
5134;DHT22;2585;48.696;10.066;2023-01-29T01:55:20;-1.60;82.20
5134;DHT22;2585;48.696;10.066;2023-01-29T01:57:52;-1.60;83.80
5134;DHT22;2585;48.696;10.066;2023-01-29T02:00:20;-1.60;84.80
5134;DHT22;2585;48.696;10.066;2023-01-29T02:02:47;-1.50;87.30
5134;DHT22;2585;48.696;10.066;2023-01-29T02:05:33;-1.50;88.40
5134;DHT22;2585;48.696;10.066;2023-01-29T02:08:26;-1.60;87.50
5134;DHT22;2585;48.696;10.066;2023-01-29T02:11:13;-1.50;86.70
5134;DHT22;2585;48.696;10.066;2023-01-29T02:13:40;-1.60;85.10
5134;DHT22;2585;48.696;10.066;2023-01-29T02:16:08;-1.60;84.00
5134;DHT22;2585;48.696;10.066;2023-01-29T02:18:34;-1.60;84.50
5134;DHT22;2585;48.696;10.066;2023-01-29T02:21:19;-1.60;85.00
5134;DHT22;2585;48.696;10.066;2023-01-29T02:23:56;-1.50;85.20
5134;DHT22;2585;48.696;10.066;2023-01-29T02:32:29;-1.70;78.70
5134;DHT22;2585;48.696;10.066;2023-01-29T02:36:03;-1.60;80.00
5134;DHT22;2585;48.696;10.066;2023-01-29T02:40:51;-1.60;81.70
5134;DHT22;2585;48.696;10.066;2023-01-29T02:43:38;-1.60;80.60
5134;DHT22;2585;48.696;10.066;2023-01-29T02:46:30;-1.60;79.30
5134;DHT22;2585;48.696;10.066;2023-01-29T02:51:49;-1.60;78.70
5134;DHT22;2585;48.696;10.066;2023-01-29T02:54:24;-1.60;80.00
5134;DHT22;2585;48.696;10.066;2023-01-29T02:56:55;-1.60;81.70
5134;DHT22;2585;48.696;10.066;2023-01-29T02:59:46;-1.60;82.20
5134;DHT22;2585;48.696;10.066;2023-01-29T03:02:19;-1.60;81.60
5134;DHT22;2585;48.696;10.066;2023-01-29T03:04:51;-1.60;78.10
5134;DHT22;2585;48.696;10.066;2023-01-29T03:07:26;-1.60;77.70
5134;DHT22;2585;48.696;10.066;2023-01-29T03:10:23;-1.60;79.10
5134;DHT22;2585;48.696;10.066;2023-01-29T03:13:01;-1.60;79.70
5134;DHT22;2585;48.696;10.066;2023-01-29T03:15:33;-1.70;80.00
5134;DHT22;2585;48.696;10.066;2023-01-29T03:20:50;-1.70;79.40
5134;DHT22;2585;48.696;10.066;2023-01-29T03:23:25;-1.80;78.90
5134;DHT22;2585;48.696;10.066;2023-01-29T03:26:14;-1.80;79.50
5134;DHT22;2585;48.696;10.066;2023-01-29T03:29:02;-1.80;74.70
5134;DHT22;2585;48.696;10.066;2023-01-29T03:31:49;-1.80;73.60
5134;DHT22;2585;48.696;10.066;2023-01-29T03:35:00;-1.90;71.30
5134;DHT22;2585;48.696;10.066;2023-01-29T03:37:45;-1.80;73.60
5134;DHT22;2585;48.696;10.066;2023-01-29T03:40:13;-1.80;75.40
5134;DHT22;2585;48.696;10.066;2023-01-29T03:42:49;-1.80;79.30
5134;DHT22;2585;48.696;10.066;2023-01-29T03:46:00;-1.80;80.80
5134;DHT22;2585;48.696;10.066;2023-01-29T03:48:53;-1.70;82.40
5134;DHT22;2585;48.696;10.066;2023-01-29T03:51:54;-1.80;80.70
5134;DHT22;2585;48.696;10.066;2023-01-29T04:00:05;-1.80;79.80
5134;DHT22;2585;48.696;10.066;2023-01-29T04:05:50;-1.80;79.60
5134;DHT22;2585;48.696;10.066;2023-01-29T04:08:26;-1.80;79.20
5134;DHT22;2585;48.696;10.066;2023-01-29T04:10:58;-1.80;80.60
5134;DHT22;2585;48.696;10.066;2023-01-29T04:13:26;-1.80;80.60
5134;DHT22;2585;48.696;10.066;2023-01-29T04:15:55;-1.80;81.70
5134;DHT22;2585;48.696;10.066;2023-01-29T04:18:24;-1.80;80.80
5134;DHT22;2585;48.696;10.066;2023-01-29T04:20:51;-1.80;79.50
5134;DHT22;2585;48.696;10.066;2023-01-29T04:23:20;-1.80;77.40
5134;DHT22;2585;48.696;10.066;2023-01-29T04:25:53;-1.80;77.00
5134;DHT22;2585;48.696;10.066;2023-01-29T04:28:46;-1.90;75.40
5134;DHT22;2585;48.696;10.066;2023-01-29T04:31:17;-1.90;75.40
5134;DHT22;2585;48.696;10.066;2023-01-29T04:34:15;-1.90;78.00
5134;DHT22;2585;48.696;10.066;2023-01-29T04:37:17;-1.90;79.90
5134;DHT22;2585;48.696;10.066;2023-01-29T04:40:08;-1.90;78.30
5134;DHT22;2585;48.696;10.066;2023-01-29T04:45:31;-2.10;72.30
5134;DHT22;2585;48.696;10.066;2023-01-29T04:53:21;-2.00;77.70
5134;DHT22;2585;48.696;10.066;2023-01-29T04:55:57;-2.00;77.10
5134;DHT22;2585;48.696;10.066;2023-01-29T04:58:47;-2.00;76.60
5134;DHT22;2585;48.696;10.066;2023-01-29T05:01:18;-2.00;77.50
5134;DHT22;2585;48.696;10.066;2023-01-29T05:03:49;-2.00;79.00
5134;DHT22;2585;48.696;10.066;2023-01-29T05:06:17;-2.00;79.20
5134;DHT22;2585;48.696;10.066;2023-01-29T05:08:46;-2.00;78.40
5134;DHT22;2585;48.696;10.066;2023-01-29T05:11:15;-2.00;77.70
5134;DHT22;2585;48.696;10.066;2023-01-29T05:13:43;-2.00;74.30
5134;DHT22;2585;48.696;10.066;2023-01-29T05:16:33;-2.00;74.00
5134;DHT22;2585;48.696;10.066;2023-01-29T05:19:11;-2.00;73.00
5134;DHT22;2585;48.696;10.066;2023-01-29T05:21:42;-2.00;74.50
5134;DHT22;2585;48.696;10.066;2023-01-29T05:24:21;-2.10;74.00
5134;DHT22;2585;48.696;10.066;2023-01-29T05:26:51;-2.10;71.90
5134;DHT22;2585;48.696;10.066;2023-01-29T05:29:38;-2.10;72.20
5134;DHT22;2585;48.696;10.066;2023-01-29T05:32:06;-2.10;74.10
5134;DHT22;2585;48.696;10.066;2023-01-29T05:34:33;-2.10;74.90
5134;DHT22;2585;48.696;10.066;2023-01-29T05:37:00;-2.00;77.00
5134;DHT22;2585;48.696;10.066;2023-01-29T05:39:27;-2.10;74.30
5134;DHT22;2585;48.696;10.066;2023-01-29T05:41:53;-2.10;72.80
5134;DHT22;2585;48.696;10.066;2023-01-29T05:44:20;-2.00;75.10
5134;DHT22;2585;48.696;10.066;2023-01-29T05:46:48;-2.10;76.20
5134;DHT22;2585;48.696;10.066;2023-01-29T05:49:16;-2.00;75.40
5134;DHT22;2585;48.696;10.066;2023-01-29T05:51:43;-2.00;78.00
5134;DHT22;2585;48.696;10.066;2023-01-29T05:54:11;-2.00;80.50
5134;DHT22;2585;48.696;10.066;2023-01-29T05:56:38;-2.00;80.20
5134;DHT22;2585;48.696;10.066;2023-01-29T05:59:05;-2.00;78.50
5134;DHT22;2585;48.696;10.066;2023-01-29T06:01:32;-2.10;75.20
5134;DHT22;2585;48.696;10.066;2023-01-29T06:03:59;-2.10;71.90
5134;DHT22;2585;48.696;10.066;2023-01-29T06:06:26;-2.10;72.00
5134;DHT22;2585;48.696;10.066;2023-01-29T06:08:53;-2.20;71.00
5134;DHT22;2585;48.696;10.066;2023-01-29T06:11:20;-2.10;72.60
5134;DHT22;2585;48.696;10.066;2023-01-29T06:13:47;-2.10;73.00
5134;DHT22;2585;48.696;10.066;2023-01-29T06:16:14;-2.10;73.10
5134;DHT22;2585;48.696;10.066;2023-01-29T06:18:41;-2.10;72.50
5134;DHT22;2585;48.696;10.066;2023-01-29T06:21:11;-2.10;69.00
5134;DHT22;2585;48.696;10.066;2023-01-29T06:23:38;-2.20;64.30
5134;DHT22;2585;48.696;10.066;2023-01-29T06:26:08;-2.20;63.80
5134;DHT22;2585;48.696;10.066;2023-01-29T06:28:36;-2.20;64.70
5134;DHT22;2585;48.696;10.066;2023-01-29T06:31:04;-2.20;64.40
5134;DHT22;2585;48.696;10.066;2023-01-29T06:33:51;-2.20;64.60
5134;DHT22;2585;48.696;10.066;2023-01-29T06:36:18;-2.20;65.60
5134;DHT22;2585;48.696;10.066;2023-01-29T06:38:44;-2.10;67.10
5134;DHT22;2585;48.696;10.066;2023-01-29T06:41:15;-2.10;66.20
5134;DHT22;2585;48.696;10.066;2023-01-29T06:43:44;-2.10;63.80
5134;DHT22;2585;48.696;10.066;2023-01-29T06:46:11;-2.10;63.30
5134;DHT22;2585;48.696;10.066;2023-01-29T06:48:38;-2.10;62.50
5134;DHT22;2585;48.696;10.066;2023-01-29T06:51:06;-2.10;62.20
5134;DHT22;2585;48.696;10.066;2023-01-29T06:53:35;-2.10;61.90
5134;DHT22;2585;48.696;10.066;2023-01-29T06:56:02;-2.10;63.10
5134;DHT22;2585;48.696;10.066;2023-01-29T06:58:29;-2.10;65.30
5134;DHT22;2585;48.696;10.066;2023-01-29T07:01:08;-2.10;64.20
5134;DHT22;2585;48.696;10.066;2023-01-29T07:03:35;-2.10;63.90
5134;DHT22;2585;48.696;10.066;2023-01-29T07:06:03;-2.10;63.50
5134;DHT22;2585;48.696;10.066;2023-01-29T07:08:30;-2.10;66.00
5134;DHT22;2585;48.696;10.066;2023-01-29T07:11:00;-2.10;65.60
5134;DHT22;2585;48.696;10.066;2023-01-29T07:13:27;-2.00;68.10
5134;DHT22;2585;48.696;10.066;2023-01-29T07:15:57;-2.10;65.50
5134;DHT22;2585;48.696;10.066;2023-01-29T07:18:26;-2.10;65.30
5134;DHT22;2585;48.696;10.066;2023-01-29T07:20:53;-2.00;64.30
5134;DHT22;2585;48.696;10.066;2023-01-29T07:23:20;-2.10;62.50
5134;DHT22;2585;48.696;10.066;2023-01-29T07:25:47;-2.10;61.20
5134;DHT22;2585;48.696;10.066;2023-01-29T07:28:16;-2.00;60.60
5134;DHT22;2585;48.696;10.066;2023-01-29T07:30:43;-2.00;63.10
5134;DHT22;2585;48.696;10.066;2023-01-29T07:33:11;-2.10;64.70
5134;DHT22;2585;48.696;10.066;2023-01-29T07:35:39;-2.10;64.30
5134;DHT22;2585;48.696;10.066;2023-01-29T07:38:09;-2.10;63.30
5134;DHT22;2585;48.696;10.066;2023-01-29T07:40:36;-2.00;63.70
5134;DHT22;2585;48.696;10.066;2023-01-29T07:43:05;-2.00;65.30
5134;DHT22;2585;48.696;10.066;2023-01-29T07:45:34;-2.00;64.80
5134;DHT22;2585;48.696;10.066;2023-01-29T07:48:01;-1.90;66.30
5134;DHT22;2585;48.696;10.066;2023-01-29T07:50:30;-2.00;65.30
5134;DHT22;2585;48.696;10.066;2023-01-29T07:52:57;-1.90;64.80
5134;DHT22;2585;48.696;10.066;2023-01-29T07:55:24;-1.90;63.70
5134;DHT22;2585;48.696;10.066;2023-01-29T07:57:58;-1.90;61.00
5134;DHT22;2585;48.696;10.066;2023-01-29T08:00:26;-1.90;58.30
5134;DHT22;2585;48.696;10.066;2023-01-29T08:02:53;-1.90;56.00
5134;DHT22;2585;48.696;10.066;2023-01-29T08:05:26;-1.90;54.40
5134;DHT22;2585;48.696;10.066;2023-01-29T08:07:53;-1.80;55.40
5134;DHT22;2585;48.696;10.066;2023-01-29T08:10:36;-1.80;53.10
5134;DHT22;2585;48.696;10.066;2023-01-29T08:13:04;-1.80;55.40
5134;DHT22;2585;48.696;10.066;2023-01-29T08:15:31;-1.70;55.30
5134;DHT22;2585;48.696;10.066;2023-01-29T08:18:00;-1.70;56.50
5134;DHT22;2585;48.696;10.066;2023-01-29T08:20:28;-1.60;60.20
5134;DHT22;2585;48.696;10.066;2023-01-29T08:23:02;-1.70;57.80
5134;DHT22;2585;48.696;10.066;2023-01-29T08:25:29;-1.70;55.60
5134;DHT22;2585;48.696;10.066;2023-01-29T08:27:57;-1.70;60.00
5134;DHT22;2585;48.696;10.066;2023-01-29T08:30:28;-1.70;58.50
5134;DHT22;2585;48.696;10.066;2023-01-29T08:32:55;-1.70;60.50
5134;DHT22;2585;48.696;10.066;2023-01-29T08:35:22;-1.70;60.20
5134;DHT22;2585;48.696;10.066;2023-01-29T08:37:57;-1.70;58.30
5134;DHT22;2585;48.696;10.066;2023-01-29T08:40:25;-1.70;54.10
5134;DHT22;2585;48.696;10.066;2023-01-29T08:43:00;-1.70;56.50
5134;DHT22;2585;48.696;10.066;2023-01-29T08:45:33;-1.70;54.70
5134;DHT22;2585;48.696;10.066;2023-01-29T08:48:01;-1.70;52.00
5134;DHT22;2585;48.696;10.066;2023-01-29T08:50:27;-1.70;51.40
5134;DHT22;2585;48.696;10.066;2023-01-29T08:52:57;-1.70;50.30
5134;DHT22;2585;48.696;10.066;2023-01-29T08:55:25;-1.70;47.80
5134;DHT22;2585;48.696;10.066;2023-01-29T08:57:52;-1.80;44.30
5134;DHT22;2585;48.696;10.066;2023-01-29T09:00:19;-1.70;48.00
5134;DHT22;2585;48.696;10.066;2023-01-29T09:02:46;-1.80;46.00
5134;DHT22;2585;48.696;10.066;2023-01-29T09:05:13;-1.80;44.60
5134;DHT22;2585;48.696;10.066;2023-01-29T09:07:41;-1.80;41.10
5134;DHT22;2585;48.696;10.066;2023-01-29T09:10:08;-1.80;41.10
5134;DHT22;2585;48.696;10.066;2023-01-29T09:12:35;-1.70;46.70
5134;DHT22;2585;48.696;10.066;2023-01-29T09:15:01;-1.70;44.70
5134;DHT22;2585;48.696;10.066;2023-01-29T09:17:29;-1.80;40.60
5134;DHT22;2585;48.696;10.066;2023-01-29T09:19:56;-1.70;40.00
5134;DHT22;2585;48.696;10.066;2023-01-29T09:22:24;-1.80;37.10
5134;DHT22;2585;48.696;10.066;2023-01-29T09:24:50;-1.80;37.90
5134;DHT22;2585;48.696;10.066;2023-01-29T09:27:17;-1.70;39.60
5134;DHT22;2585;48.696;10.066;2023-01-29T09:29:44;-1.70;39.60
5134;DHT22;2585;48.696;10.066;2023-01-29T09:32:11;-1.70;37.30
5134;DHT22;2585;48.696;10.066;2023-01-29T09:34:38;-1.70;36.10
5134;DHT22;2585;48.696;10.066;2023-01-29T09:37:04;-1.60;42.30
5134;DHT22;2585;48.696;10.066;2023-01-29T09:39:32;-1.60;39.60
5134;DHT22;2585;48.696;10.066;2023-01-29T09:45:01;-1.60;34.40
5134;DHT22;2585;48.696;10.066;2023-01-29T09:47:32;-1.50;35.80
5134;DHT22;2585;48.696;10.066;2023-01-29T09:50:06;-1.50;35.20
5134;DHT22;2585;48.696;10.066;2023-01-29T09:52:40;-1.60;31.00
5134;DHT22;2585;48.696;10.066;2023-01-29T09:55:13;-1.50;30.70
5134;DHT22;2585;48.696;10.066;2023-01-29T09:57:56;-1.60;27.50
5134;DHT22;2585;48.696;10.066;2023-01-29T10:03:07;-1.60;25.00
5134;DHT22;2585;48.696;10.066;2023-01-29T10:05:58;-1.50;25.50
5134;DHT22;2585;48.696;10.066;2023-01-29T10:08:52;-1.50;24.40
5134;DHT22;2585;48.696;10.066;2023-01-29T10:19:52;-1.60;21.70
5134;DHT22;2585;48.696;10.066;2023-01-29T10:22:56;-1.60;22.70
5134;DHT22;2585;48.696;10.066;2023-01-29T10:25:26;-1.40;26.30
5134;DHT22;2585;48.696;10.066;2023-01-29T10:27:55;-1.30;23.40
5134;DHT22;2585;48.696;10.066;2023-01-29T10:30:26;-1.40;19.20
5134;DHT22;2585;48.696;10.066;2023-01-29T10:32:56;-1.20;19.80
5134;DHT22;2585;48.696;10.066;2023-01-29T10:35:38;-1.10;19.00
5134;DHT22;2585;48.696;10.066;2023-01-29T10:47:45;-0.90;13.70
5134;DHT22;2585;48.696;10.066;2023-01-29T10:50:22;-0.90;11.10
5134;DHT22;2585;48.696;10.066;2023-01-29T10:59:26;-0.70;9.10
5134;DHT22;2585;48.696;10.066;2023-01-29T11:01:58;-0.70;6.00
5134;DHT22;2585;48.696;10.066;2023-01-29T11:04:27;-0.60;8.00
5134;DHT22;2585;48.696;10.066;2023-01-29T11:06:55;-0.50;8.60
5134;DHT22;2585;48.696;10.066;2023-01-29T11:10:25;-0.40;7.60
5134;DHT22;2585;48.696;10.066;2023-01-29T11:12:27;-0.60;4.60
5134;DHT22;2585;48.696;10.066;2023-01-29T11:15:23;-0.60;4.40
5134;DHT22;2585;48.696;10.066;2023-01-29T11:18:09;-0.40;5.50
5134;DHT22;2585;48.696;10.066;2023-01-29T11:20:40;-0.30;4.80
5134;DHT22;2585;48.696;10.066;2023-01-29T11:23:28;0.00;6.50
5134;DHT22;2585;48.696;10.066;2023-01-29T11:25:56;0.30;5.80
5134;DHT22;2585;48.696;10.066;2023-01-29T11:28:37;0.20;2.30
5134;DHT22;2585;48.696;10.066;2023-01-29T11:31:23;0.40;2.40
5134;DHT22;2585;48.696;10.066;2023-01-29T11:34:00;0.40;2.90
5134;DHT22;2585;48.696;10.066;2023-01-29T11:36:35;0.40;1.00
5134;DHT22;2585;48.696;10.066;2023-01-29T11:39:22;0.30;1.00
5134;DHT22;2585;48.696;10.066;2023-01-29T11:41:58;0.40;1.00
5134;DHT22;2585;48.696;10.066;2023-01-29T11:44:34;0.30;1.00
5134;DHT22;2585;48.696;10.066;2023-01-29T11:47:26;0.10;1.00
5134;DHT22;2585;48.696;10.066;2023-01-29T11:49:55;0.10;1.00
5134;DHT22;2585;48.696;10.066;2023-01-29T11:52:33;-0.10;1.00
5134;DHT22;2585;48.696;10.066;2023-01-29T11:55:06;0.00;1.00
5134;DHT22;2585;48.696;10.066;2023-01-29T11:57:49;0.00;1.00
5134;DHT22;2585;48.696;10.066;2023-01-29T12:02:46;0.20;1.00
5134;DHT22;2585;48.696;10.066;2023-01-29T12:05:16;0.50;1.00
5134;DHT22;2585;48.696;10.066;2023-01-29T12:07:46;0.50;1.00
5134;DHT22;2585;48.696;10.066;2023-01-29T12:10:38;0.40;1.00
5134;DHT22;2585;48.696;10.066;2023-01-29T12:15:40;0.50;1.00
5134;DHT22;2585;48.696;10.066;2023-01-29T12:21:02;0.60;1.00
5134;DHT22;2585;48.696;10.066;2023-01-29T12:23:34;0.50;1.00
5134;DHT22;2585;48.696;10.066;2023-01-29T12:26:09;0.70;1.00
5134;DHT22;2585;48.696;10.066;2023-01-29T12:31:21;0.70;1.00
5134;DHT22;2585;48.696;10.066;2023-01-29T12:37:11;0.80;1.00
5134;DHT22;2585;48.696;10.066;2023-01-29T12:39:39;1.30;1.00
5134;DHT22;2585;48.696;10.066;2023-01-29T12:42:38;1.20;1.00
5134;DHT22;2585;48.696;10.066;2023-01-29T12:45:08;1.10;1.00
5134;DHT22;2585;48.696;10.066;2023-01-29T12:47:41;1.30;1.00
5134;DHT22;2585;48.696;10.066;2023-01-29T12:50:18;1.40;1.00
5134;DHT22;2585;48.696;10.066;2023-01-29T12:55:32;1.20;1.00
5134;DHT22;2585;48.696;10.066;2023-01-29T12:58:08;1.00;1.00
5134;DHT22;2585;48.696;10.066;2023-01-29T13:00:39;0.90;1.00
5134;DHT22;2585;48.696;10.066;2023-01-29T13:06:08;1.20;1.00
5134;DHT22;2585;48.696;10.066;2023-01-29T13:08:53;1.30;1.00
5134;DHT22;2585;48.696;10.066;2023-01-29T13:11:34;1.10;1.00
5134;DHT22;2585;48.696;10.066;2023-01-29T13:16:42;1.30;1.00
5134;DHT22;2585;48.696;10.066;2023-01-29T13:19:24;1.20;1.00
5134;DHT22;2585;48.696;10.066;2023-01-29T13:21:55;1.10;1.00
5134;DHT22;2585;48.696;10.066;2023-01-29T13:24:26;1.30;1.00
5134;DHT22;2585;48.696;10.066;2023-01-29T13:26:56;1.40;1.00
5134;DHT22;2585;48.696;10.066;2023-01-29T13:29:28;1.20;1.00
5134;DHT22;2585;48.696;10.066;2023-01-29T13:31:57;1.10;1.00
5134;DHT22;2585;48.696;10.066;2023-01-29T13:34:41;1.20;1.00
5134;DHT22;2585;48.696;10.066;2023-01-29T13:39:57;1.00;1.00
5134;DHT22;2585;48.696;10.066;2023-01-29T13:45:02;1.00;1.00
5134;DHT22;2585;48.696;10.066;2023-01-29T13:47:35;1.10;1.00
5134;DHT22;2585;48.696;10.066;2023-01-29T13:53:01;1.10;1.00
5134;DHT22;2585;48.696;10.066;2023-01-29T13:55:34;1.40;1.00
5134;DHT22;2585;48.696;10.066;2023-01-29T13:58:14;1.10;1.00
5134;DHT22;2585;48.696;10.066;2023-01-29T14:10:36;0.90;1.00
5134;DHT22;2585;48.696;10.066;2023-01-29T14:15:31;0.80;1.00
5134;DHT22;2585;48.696;10.066;2023-01-29T14:23:28;0.40;1.00
5134;DHT22;2585;48.696;10.066;2023-01-29T14:25:58;0.60;1.00
5134;DHT22;2585;48.696;10.066;2023-01-29T14:28:28;0.80;1.00
5134;DHT22;2585;48.696;10.066;2023-01-29T14:30:56;0.60;1.00
5134;DHT22;2585;48.696;10.066;2023-01-29T14:33:33;0.60;1.00
5134;DHT22;2585;48.696;10.066;2023-01-29T14:36:03;0.70;1.00
5134;DHT22;2585;48.696;10.066;2023-01-29T14:38:32;0.60;1.00
5134;DHT22;2585;48.696;10.066;2023-01-29T14:41:31;0.60;1.00
5134;DHT22;2585;48.696;10.066;2023-01-29T14:47:03;0.40;1.00
5134;DHT22;2585;48.696;10.066;2023-01-29T14:49:53;0.50;1.00
5134;DHT22;2585;48.696;10.066;2023-01-29T14:52:34;0.30;1.00
5134;DHT22;2585;48.696;10.066;2023-01-29T14:55:07;0.30;1.00
5134;DHT22;2585;48.696;10.066;2023-01-29T14:57:36;0.40;1.00
5134;DHT22;2585;48.696;10.066;2023-01-29T15:00:19;0.30;1.00
5134;DHT22;2585;48.696;10.066;2023-01-29T15:02:50;0.30;1.00
5134;DHT22;2585;48.696;10.066;2023-01-29T15:05:31;0.20;1.00
5134;DHT22;2585;48.696;10.066;2023-01-29T15:10:52;0.30;1.00
5134;DHT22;2585;48.696;10.066;2023-01-29T15:14:07;0.20;1.00
5134;DHT22;2585;48.696;10.066;2023-01-29T15:16:58;0.10;1.00
5134;DHT22;2585;48.696;10.066;2023-01-29T15:19:37;0.00;1.00
5134;DHT22;2585;48.696;10.066;2023-01-29T15:22:20;0.00;1.00
5134;DHT22;2585;48.696;10.066;2023-01-29T15:25:04;0.00;1.00
5134;DHT22;2585;48.696;10.066;2023-01-29T15:27:33;-0.10;1.00
5134;DHT22;2585;48.696;10.066;2023-01-29T15:30:02;-0.10;1.00
5134;DHT22;2585;48.696;10.066;2023-01-29T15:32:36;-0.10;1.00
5134;DHT22;2585;48.696;10.066;2023-01-29T15:35:08;-0.20;1.00
5134;DHT22;2585;48.696;10.066;2023-01-29T15:37:36;-0.30;1.00
5134;DHT22;2585;48.696;10.066;2023-01-29T15:40:06;-0.30;1.00
5134;DHT22;2585;48.696;10.066;2023-01-29T15:42:43;-0.30;1.00
5134;DHT22;2585;48.696;10.066;2023-01-29T15:45:44;-0.30;1.00
5134;DHT22;2585;48.696;10.066;2023-01-29T15:48:15;-0.40;1.00
5134;DHT22;2585;48.696;10.066;2023-01-29T15:50:44;-0.40;1.00
5134;DHT22;2585;48.696;10.066;2023-01-29T15:53:25;-0.50;1.00
5134;DHT22;2585;48.696;10.066;2023-01-29T15:55:54;-0.50;1.00
5134;DHT22;2585;48.696;10.066;2023-01-29T15:58:28;-0.50;1.00
5134;DHT22;2585;48.696;10.066;2023-01-29T16:00:56;-0.60;1.00
5134;DHT22;2585;48.696;10.066;2023-01-29T16:03:26;-0.60;1.00
5134;DHT22;2585;48.696;10.066;2023-01-29T16:05:54;-0.60;1.00
5134;DHT22;2585;48.696;10.066;2023-01-29T16:08:22;-0.70;1.20
5134;DHT22;2585;48.696;10.066;2023-01-29T16:10:58;-0.70;1.60
5134;DHT22;2585;48.696;10.066;2023-01-29T16:13:31;-0.70;2.20
5134;DHT22;2585;48.696;10.066;2023-01-29T16:16:18;-0.80;3.10
5134;DHT22;2585;48.696;10.066;2023-01-29T16:18:47;-0.80;3.70
5134;DHT22;2585;48.696;10.066;2023-01-29T16:21:35;-0.90;4.00
5134;DHT22;2585;48.696;10.066;2023-01-29T16:24:11;-0.90;4.90
5134;DHT22;2585;48.696;10.066;2023-01-29T16:26:43;-0.90;6.20
5134;DHT22;2585;48.696;10.066;2023-01-29T16:29:21;-1.00;7.20
5134;DHT22;2585;48.696;10.066;2023-01-29T16:31:52;-1.00;9.40
5134;DHT22;2585;48.696;10.066;2023-01-29T16:34:35;-1.00;10.30
5134;DHT22;2585;48.696;10.066;2023-01-29T16:37:19;-1.10;10.80
5134;DHT22;2585;48.696;10.066;2023-01-29T16:39:47;-1.10;11.80
5134;DHT22;2585;48.696;10.066;2023-01-29T16:47:22;-1.20;14.40
5134;DHT22;2585;48.696;10.066;2023-01-29T16:49:53;-1.30;14.80
5134;DHT22;2585;48.696;10.066;2023-01-29T16:52:29;-1.40;14.80
5134;DHT22;2585;48.696;10.066;2023-01-29T16:57:38;-1.50;17.30
5134;DHT22;2585;48.696;10.066;2023-01-29T17:00:16;-1.60;17.40
5134;DHT22;2585;48.696;10.066;2023-01-29T17:02:43;-1.60;19.60
5134;DHT22;2585;48.696;10.066;2023-01-29T17:05:20;-1.60;21.30
5134;DHT22;2585;48.696;10.066;2023-01-29T17:07:48;-1.70;21.40
5134;DHT22;2585;48.696;10.066;2023-01-29T17:10:17;-1.80;21.60
5134;DHT22;2585;48.696;10.066;2023-01-29T17:12:54;-1.70;22.10
5134;DHT22;2585;48.696;10.066;2023-01-29T17:18:20;-1.80;23.50
5134;DHT22;2585;48.696;10.066;2023-01-29T17:20:47;-1.90;26.00
5134;DHT22;2585;48.696;10.066;2023-01-29T17:23:15;-1.90;28.20
5134;DHT22;2585;48.696;10.066;2023-01-29T17:25:42;-2.00;30.00
5134;DHT22;2585;48.696;10.066;2023-01-29T17:28:14;-2.00;33.90
5134;DHT22;2585;48.696;10.066;2023-01-29T17:30:41;-2.10;33.50
5134;DHT22;2585;48.696;10.066;2023-01-29T17:33:17;-2.10;38.10
5134;DHT22;2585;48.696;10.066;2023-01-29T17:35:48;-2.20;40.80
5134;DHT22;2585;48.696;10.066;2023-01-29T17:38:17;-2.20;47.00
5134;DHT22;2585;48.696;10.066;2023-01-29T17:40:57;-2.20;49.00
5134;DHT22;2585;48.696;10.066;2023-01-29T17:43:25;-2.30;47.20
5134;DHT22;2585;48.696;10.066;2023-01-29T17:45:52;-2.30;46.50
5134;DHT22;2585;48.696;10.066;2023-01-29T17:48:24;-2.40;46.50
5134;DHT22;2585;48.696;10.066;2023-01-29T17:50:53;-2.40;47.00
5134;DHT22;2585;48.696;10.066;2023-01-29T17:53:21;-2.50;47.50
5134;DHT22;2585;48.696;10.066;2023-01-29T17:55:51;-2.60;51.80
5134;DHT22;2585;48.696;10.066;2023-01-29T17:58:25;-2.60;57.90
5134;DHT22;2585;48.696;10.066;2023-01-29T18:00:53;-2.70;60.30
5134;DHT22;2585;48.696;10.066;2023-01-29T18:03:20;-2.70;61.10
5134;DHT22;2585;48.696;10.066;2023-01-29T18:05:48;-2.70;61.20
5134;DHT22;2585;48.696;10.066;2023-01-29T18:08:28;-2.80;61.20
5134;DHT22;2585;48.696;10.066;2023-01-29T18:10:56;-2.80;61.80
5134;DHT22;2585;48.696;10.066;2023-01-29T18:13:23;-2.90;61.20
5134;DHT22;2585;48.696;10.066;2023-01-29T18:15:50;-2.90;60.40
5134;DHT22;2585;48.696;10.066;2023-01-29T18:18:22;-2.90;61.00
5134;DHT22;2585;48.696;10.066;2023-01-29T18:20:49;-3.00;62.10
5134;DHT22;2585;48.696;10.066;2023-01-29T18:23:16;-3.10;62.50
5134;DHT22;2585;48.696;10.066;2023-01-29T18:25:43;-3.10;64.10
5134;DHT22;2585;48.696;10.066;2023-01-29T18:28:16;-3.10;63.90
5134;DHT22;2585;48.696;10.066;2023-01-29T18:30:44;-3.10;65.30
5134;DHT22;2585;48.696;10.066;2023-01-29T18:33:13;-3.20;64.70
5134;DHT22;2585;48.696;10.066;2023-01-29T18:35:41;-3.20;65.60
5134;DHT22;2585;48.696;10.066;2023-01-29T18:38:08;-3.30;68.50